Lyndell, Pennsylvania
Current Conditions -  °F | °C
As of 1:15 PM on Thursday 27 Nov 2014 (Local Time) from KMQS Reporting Station
Broken Clouds Broken Clouds  
Wind Chill: 30°   Ceiling: 5500
Heat Index: 36°   Visibility: 10mi
Dew Point: 28°   Wind: 7mph
Humidity: 75%   Direction: 320°NW
Pressure: 30.01"   Gusts: NA
Location:  40.06°N, 75.74°W
Report Text: KMQS 271815Z AUTO 32006KT 10SM FEW017 BKN055 02/M02 A3001 RMK AO2
Loading
Personal Weather Stations






























Interactive Weather Map New forecast layout! Learn more

10-Day Weather Forecast

Advertisements
Track Severe Weather on mobile